createdAt,value
2019-05-01T00:00:00.708Z,38.57
2019-05-01T00:02:50.264Z,37.27
2019-05-01T00:05:25.177Z,37.50
2019-05-01T00:07:53.879Z,38.10
2019-05-01T00:10:21.639Z,36.80
2019-05-01T00:12:49.407Z,37.83
2019-05-01T00:15:21.771Z,42.80
2019-05-01T00:17:50.490Z,36.57
2019-05-01T00:20:18.141Z,35.70
2019-05-01T00:22:45.638Z,39.87
2019-05-01T00:25:15.741Z,39.20
2019-05-01T00:27:43.316Z,40.33
2019-05-01T00:30:14.880Z,37.30
2019-05-01T00:32:42.550Z,39.53
2019-05-01T00:35:10.511Z,38.27
2019-05-01T00:37:39.190Z,36.73
2019-05-01T00:40:06.900Z,36.77
2019-05-01T00:42:34.521Z,38.57
2019-05-01T00:45:02.225Z,37.37
2019-05-01T00:47:32.854Z,36.57
2019-05-01T00:50:00.473Z,37.03
2019-05-01T00:52:28.032Z,37.50
2019-05-01T00:55:15.080Z,37.80
2019-05-01T00:57:51.081Z,37.17
2019-05-01T01:00:47.226Z,36.43
2019-05-01T01:03:14.803Z,38.97
2019-05-01T01:05:45.898Z,37.30
2019-05-01T01:08:13.446Z,32.90
2019-05-01T01:10:41.022Z,35.03
2019-05-01T01:13:08.555Z,34.50
2019-05-01T01:15:36.076Z,35.10
2019-05-01T01:18:03.727Z,35.07
2019-05-01T01:20:31.260Z,34.87
2019-05-01T01:22:58.785Z,31.67
2019-05-01T01:25:26.341Z,33.30
2019-05-01T01:27:56.202Z,32.47
2019-05-01T01:30:23.986Z,35.80
2019-05-01T01:32:51.521Z,32.70
2019-05-01T01:35:19.439Z,33.33
2019-05-01T01:37:47.321Z,33.80
2019-05-01T01:40:14.976Z,33.20
2019-05-01T01:42:43.469Z,33.10
2019-05-01T01:45:26.397Z,30.03
2019-05-01T01:48:12.190Z,30.53
2019-05-01T01:50:43.072Z,28.27
2019-05-01T01:53:14.559Z,28.93
2019-05-01T01:55:42.213Z,31.90
2019-05-01T01:58:11.022Z,30.57
2019-05-01T02:00:49.303Z,28.50
2019-05-01T02:03:17.395Z,29.87
2019-05-01T02:05:44.969Z,31.13
2019-05-01T02:08:12.818Z,28.40
2019-05-01T02:10:42.895Z,33.70
2019-05-01T02:13:10.267Z,31.03
2019-05-01T02:15:37.805Z,31.27
2019-05-01T02:18:05.383Z,29.67
2019-05-01T02:20:33.185Z,29.13
2019-05-01T02:23:00.741Z,28.07
2019-05-01T02:25:29.209Z,30.73
2019-05-01T02:28:34.249Z,28.43
2019-05-01T02:31:26.966Z,29.60
2019-05-01T02:33:45.876Z,28.80
2019-05-01T02:36:17.727Z,29.33
2019-05-01T02:38:47.227Z,28.73
2019-05-01T02:41:17.940Z,28.63
2019-05-01T02:43:48.685Z,29.20
2019-05-01T02:46:18.264Z,30.70
2019-05-01T02:48:52.870Z,32.57
2019-05-01T02:51:21.281Z,29.47
2019-05-01T02:53:49.632Z,30.13
2019-05-01T02:56:25.450Z,30.10
2019-05-01T02:58:55.853Z,28.50
2019-05-01T03:01:24.424Z,29.23
2019-05-01T03:03:52.859Z,28.13
2019-05-01T03:06:21.071Z,29.63
2019-05-01T03:08:49.770Z,29.57
2019-05-01T03:11:17.462Z,28.83
2019-05-01T03:13:46.249Z,29.07
2019-05-01T03:16:14.980Z,30.03
2019-05-01T03:18:47.506Z,26.50
2019-05-01T03:21:30.510Z,29.37
2019-05-01T03:24:05.265Z,29.93
2019-05-01T03:26:52.794Z,29.00
2019-05-01T03:29:20.575Z,28.77
2019-05-01T03:32:14.233Z,31.80
2019-05-01T03:34:19.291Z,27.80
2019-05-01T03:37:06.291Z,28.80
2019-05-01T03:39:34.988Z,28.77
2019-05-01T03:42:02.608Z,26.47
2019-05-01T03:44:30.280Z,27.63
2019-05-01T03:46:57.854Z,26.50
2019-05-01T03:49:25.600Z,29.53
2019-05-01T03:51:53.414Z,29.30
2019-05-01T03:54:21.044Z,28.30
2019-05-01T03:56:48.637Z,28.47
2019-05-01T03:59:16.285Z,29.47
2019-05-01T04:02:32.321Z,34.13
2019-05-01T04:04:44.865Z,29.47
2019-05-01T04:07:12.527Z,25.97
2019-05-01T04:09:40.931Z,25.53
2019-05-01T04:12:08.444Z,26.43
2019-05-01T04:14:39.421Z,26.30
2019-05-01T04:17:15.236Z,25.00
2019-05-01T04:19:42.912Z,23.77
2019-05-01T04:22:12.412Z,24.77
2019-05-01T04:24:41.096Z,26.47
2019-05-01T04:27:10.488Z,28.20
2019-05-01T04:29:54.069Z,27.73
2019-05-01T04:32:24.967Z,26.63
2019-05-01T04:35:24.293Z,25.20
2019-05-01T04:37:53.280Z,27.20
2019-05-01T04:40:21.372Z,25.33
2019-05-01T04:42:48.921Z,25.73
2019-05-01T04:45:16.970Z,25.07
2019-05-01T04:47:44.591Z,27.67
2019-05-01T04:50:12.433Z,26.03
2019-05-01T04:52:39.999Z,27.80
2019-05-01T04:55:07.698Z,24.70
2019-05-01T04:57:39.382Z,27.73
2019-05-01T05:00:07.055Z,27.10
2019-05-01T05:02:44.878Z,30.20
2019-05-01T05:05:13.074Z,27.77
2019-05-01T05:07:48.061Z,29.70
2019-05-01T05:10:15.836Z,27.57
2019-05-01T05:12:51.926Z,30.00
2019-05-01T05:15:54.422Z,29.53
2019-05-01T05:18:22.254Z,28.23
2019-05-01T05:20:50.140Z,30.70
2019-05-01T05:23:18.023Z,30.90
2019-05-01T05:25:46.995Z,33.60
2019-05-01T05:28:15.077Z,31.53
2019-05-01T05:30:44.284Z,26.77
2019-05-01T05:33:18.689Z,28.20
2019-05-01T05:35:45.138Z,28.90
2019-05-01T05:38:30.248Z,29.67
2019-05-01T05:41:00.407Z,29.87
2019-05-01T05:43:28.424Z,27.97
2019-05-01T05:45:56.235Z,30.13
2019-05-01T05:48:23.912Z,28.03
2019-05-01T05:51:25.420Z,29.00
2019-05-01T05:53:56.898Z,31.40
2019-05-01T05:56:32.288Z,32.57
2019-05-01T05:59:06.905Z,32.77
2019-05-01T06:01:58.091Z,34.37
2019-05-01T06:04:48.040Z,34.30
2019-05-01T06:07:42.899Z,33.67
2019-05-01T06:10:32.682Z,33.67
2019-05-01T06:13:39.223Z,34.47
2019-05-01T06:16:16.336Z,32.53
2019-05-01T06:19:14.540Z,37.33
2019-05-01T06:21:50.416Z,35.30
2019-05-01T06:24:23.476Z,34.67
2019-05-01T06:26:51.161Z,34.13
2019-05-01T06:29:21.817Z,34.90
2019-05-01T06:31:49.357Z,36.90
2019-05-01T06:34:17.139Z,36.67
2019-05-01T06:36:49.645Z,38.77
2019-05-01T06:39:15.689Z,36.23
2019-05-01T06:41:44.230Z,34.00
2019-05-01T06:44:33.421Z,36.30
2019-05-01T06:47:20.741Z,36.83
2019-05-01T06:50:08.784Z,35.47
2019-05-01T06:52:37.929Z,34.70
2019-05-01T06:55:06.655Z,34.53
2019-05-01T06:57:38.434Z,34.53
2019-05-01T07:00:09.408Z,34.87
2019-05-01T07:02:37.941Z,32.13
2019-05-01T07:05:09.034Z,32.87
2019-05-01T07:07:48.118Z,34.33
2019-05-01T07:10:14.333Z,33.60
2019-05-01T07:12:42.069Z,32.37
2019-05-01T07:15:09.744Z,34.30
2019-05-01T07:17:37.679Z,29.93
2019-05-01T07:20:31.236Z,34.27
2019-05-01T07:23:07.628Z,34.83
2019-05-01T07:25:39.471Z,31.70
2019-05-01T07:28:06.491Z,34.03
2019-05-01T07:30:44.888Z,30.97
2019-05-01T07:33:16.649Z,29.83
2019-05-01T07:35:47.490Z,30.87
2019-05-01T07:38:15.213Z,30.10
2019-05-01T07:40:45.547Z,30.10
2019-05-01T07:43:29.393Z,29.63
2019-05-01T07:46:22.911Z,33.53
2019-05-01T07:48:50.870Z,29.33
2019-05-01T07:51:19.072Z,30.73
2019-05-01T07:53:47.774Z,30.37
2019-05-01T07:56:22.785Z,34.93
2019-05-01T07:58:52.075Z,32.00
2019-05-01T08:01:29.118Z,31.50
2019-05-01T08:03:57.922Z,34.63
2019-05-01T08:06:28.954Z,34.40
2019-05-01T08:08:56.512Z,36.63
2019-05-01T08:11:24.031Z,33.80
2019-05-01T08:13:53.630Z,34.73
2019-05-01T08:16:22.198Z,35.80
2019-05-01T08:18:59.021Z,36.27
2019-05-01T08:21:47.344Z,35.93
2019-05-01T08:24:33.604Z,39.60
2019-05-01T08:27:56.240Z,43.87
2019-05-01T08:30:58.810Z,41.40
2019-05-01T08:33:55.131Z,42.93
2019-05-01T08:36:28.752Z,41.63
2019-05-01T08:38:56.394Z,42.83
2019-05-01T08:44:29.522Z,45.63
2019-05-01T08:47:20.702Z,47.13
2019-05-01T08:50:01.481Z,48.30
2019-05-01T08:52:31.035Z,51.70
2019-05-01T08:55:04.370Z,47.53
2019-05-01T08:57:34.117Z,47.50
2019-05-01T09:00:01.640Z,49.03
2019-05-01T09:02:29.490Z,48.27
2019-05-01T09:05:02.618Z,49.47
2019-05-01T09:07:31.885Z,46.13
2019-05-01T09:09:59.466Z,46.97
2019-05-01T09:12:27.046Z,49.60
2019-05-01T09:14:54.640Z,51.60
2019-05-01T09:17:22.214Z,47.20
2019-05-01T09:19:51.843Z,49.80
2019-05-01T09:22:19.402Z,51.03
2019-05-01T09:24:47.782Z,50.23
2019-05-01T09:27:40.812Z,48.20
2019-05-01T09:30:15.508Z,52.23
2019-05-01T09:32:45.974Z,50.57
2019-05-01T09:35:15.988Z,52.00
2019-05-01T09:37:45.948Z,50.90
2019-05-01T09:40:14.643Z,55.43
2019-05-01T09:43:01.666Z,49.30
2019-05-01T09:45:29.338Z,52.00
2019-05-01T09:47:57.081Z,49.43
2019-05-01T09:50:25.742Z,50.67
2019-05-01T09:53:13.551Z,53.53
2019-05-01T09:55:50.654Z,51.70
2019-05-01T09:58:18.242Z,51.27
2019-05-01T10:00:48.759Z,46.30
2019-05-01T10:03:16.912Z,47.40
2019-05-01T10:05:46.791Z,47.80
2019-05-01T10:08:14.383Z,47.77
2019-05-01T10:10:41.939Z,46.70
2019-05-01T10:13:09.528Z,46.27
2019-05-01T10:15:37.110Z,47.43
2019-05-01T10:18:04.680Z,46.13
2019-05-01T10:20:32.264Z,47.27
2019-05-01T10:22:59.973Z,48.23
2019-05-01T10:25:27.746Z,50.53
2019-05-01T10:28:12.703Z,47.37
2019-05-01T10:30:59.842Z,47.77
2019-05-01T10:33:29.075Z,49.77
2019-05-01T10:36:18.274Z,46.53
2019-05-01T10:38:45.084Z,45.23
2019-05-01T10:41:10.745Z,44.83
2019-05-01T10:43:38.552Z,45.57
2019-05-01T10:46:10.548Z,40.43
2019-05-01T10:48:38.215Z,46.37
2019-05-01T10:51:05.736Z,44.47
2019-05-01T10:53:34.429Z,43.67
2019-05-01T10:56:03.049Z,40.33
2019-05-01T10:58:30.639Z,43.43
2019-05-01T11:01:05.611Z,44.23
2019-05-01T11:03:33.189Z,46.73
2019-05-01T11:06:00.923Z,46.10
2019-05-01T11:08:28.495Z,43.23
2019-05-01T11:10:56.065Z,45.93
2019-05-01T11:13:23.639Z,46.63
2019-05-01T11:15:51.191Z,46.70
2019-05-01T11:18:18.830Z,48.73
2019-05-01T11:20:46.419Z,46.50
2019-05-01T11:23:14.131Z,47.77
2019-05-01T11:25:44.470Z,48.47
2019-05-01T11:28:11.171Z,44.47
2019-05-01T11:30:38.743Z,46.63
2019-05-01T11:33:23.958Z,48.53
2019-05-01T11:36:09.996Z,46.40
2019-05-01T11:39:01.166Z,47.50
2019-05-01T11:41:42.157Z,45.80
2019-05-01T11:44:09.860Z,48.20
2019-05-01T11:46:37.418Z,45.20
2019-05-01T11:49:04.985Z,48.97
2019-05-01T11:51:32.481Z,47.70
2019-05-01T11:54:02.239Z,46.50
2019-05-01T11:56:29.402Z,45.40
2019-05-01T11:58:57.041Z,47.90
2019-05-01T12:01:30.341Z,48.43
2019-05-01T12:03:59.347Z,50.53
2019-05-01T12:06:27.069Z,49.60
2019-05-01T12:08:56.849Z,50.03
2019-05-01T12:11:26.325Z,50.63
2019-05-01T12:13:54.047Z,50.70
2019-05-01T12:16:43.921Z,52.57
2019-05-01T12:19:11.859Z,54.27
2019-05-01T12:21:39.529Z,55.50
2019-05-01T12:24:07.133Z,60.27
2019-05-01T12:26:54.379Z,55.83
2019-05-01T12:29:22.016Z,60.50
2019-05-01T12:31:49.716Z,54.60
2019-05-01T12:34:17.976Z,59.67
2019-05-01T12:36:46.653Z,62.10
2019-05-01T12:39:15.882Z,63.53
2019-05-01T12:41:52.551Z,60.23
2019-05-01T12:44:20.164Z,60.40
2019-05-01T12:46:57.549Z,64.20
2019-05-01T12:49:27.193Z,61.63
2019-05-01T12:52:09.801Z,63.60
2019-05-01T12:55:09.443Z,66.20
2019-05-01T12:57:38.703Z,63.27
2019-05-01T13:00:12.852Z,65.30
2019-05-01T13:02:41.272Z,62.77
2019-05-01T13:05:08.960Z,62.67
2019-05-01T13:07:40.935Z,63.67
2019-05-01T13:10:08.746Z,62.80
2019-05-01T13:12:36.990Z,62.63
2019-05-01T13:15:05.364Z,62.30
2019-05-01T13:17:33.208Z,59.77
2019-05-01T13:20:20.294Z,58.17
2019-05-01T13:22:50.862Z,59.77
2019-05-01T13:25:18.996Z,60.37
2019-05-01T13:27:55.960Z,64.60
2019-05-01T13:30:46.010Z,61.37
2019-05-01T13:33:13.957Z,60.07
2019-05-01T13:35:54.258Z,62.60
2019-05-01T13:38:25.642Z,61.40
2019-05-01T13:40:53.456Z,62.97
2019-05-01T13:43:21.225Z,57.87
2019-05-01T13:45:51.862Z,59.53
2019-05-01T13:48:19.663Z,57.87
2019-05-01T13:50:50.118Z,59.70
2019-05-01T13:53:18.108Z,57.53
2019-05-01T13:55:45.736Z,59.10
2019-05-01T13:58:15.262Z,58.00
2019-05-01T14:00:45.370Z,55.30
2019-05-01T14:03:13.052Z,56.93
2019-05-01T14:05:42.231Z,55.53
2019-05-01T14:08:11.571Z,55.93
2019-05-01T14:10:39.282Z,52.53
2019-05-01T14:13:06.998Z,56.50
2019-05-01T14:15:34.770Z,56.07
2019-05-01T14:18:02.439Z,55.50
2019-05-01T14:20:47.490Z,55.97
2019-05-01T14:23:37.208Z,55.73
2019-05-01T14:26:06.540Z,58.03
2019-05-01T14:28:35.192Z,55.53
2019-05-01T14:31:03.402Z,64.33
2019-05-01T14:33:31.342Z,62.50
2019-05-01T14:36:06.312Z,60.70
2019-05-01T14:38:34.068Z,61.13
2019-05-01T14:41:02.265Z,58.70
2019-05-01T14:43:29.972Z,57.67
2019-05-01T14:45:58.817Z,57.77
2019-05-01T14:48:26.586Z,63.40
2019-05-01T14:50:56.849Z,60.43
2019-05-01T14:53:26.650Z,59.37
2019-05-01T14:55:55.449Z,61.63
2019-05-01T14:58:23.147Z,60.27
2019-05-01T15:00:50.829Z,59.93
2019-05-01T15:03:20.724Z,59.37
2019-05-01T15:05:48.544Z,63.23
2019-05-01T15:08:19.495Z,57.97
2019-05-01T15:10:48.428Z,59.83
2019-05-01T15:13:25.907Z,63.33
2019-05-01T15:16:08.268Z,61.17
2019-05-01T15:18:51.101Z,55.73
2019-05-01T15:21:18.887Z,57.10
2019-05-01T15:24:02.383Z,57.57
2019-05-01T15:26:31.170Z,53.37
2019-05-01T15:28:58.882Z,56.60
2019-05-01T15:31:28.631Z,59.00
2019-05-01T15:33:56.165Z,59.40
2019-05-01T15:36:23.670Z,54.80
2019-05-01T15:39:07.329Z,55.60
2019-05-01T15:42:00.470Z,57.03
2019-05-01T15:44:31.217Z,59.47
2019-05-01T15:46:58.963Z,56.17
2019-05-01T15:49:26.732Z,54.73
2019-05-01T15:51:54.653Z,56.50
2019-05-01T15:54:22.423Z,55.67
2019-05-01T15:56:57.421Z,54.60
2019-05-01T15:59:24.987Z,56.27
2019-05-01T16:01:52.517Z,53.63
2019-05-01T16:04:20.053Z,54.23
2019-05-01T16:06:47.737Z,55.33
2019-05-01T16:09:15.521Z,53.70
2019-05-01T16:12:08.715Z,54.40
2019-05-01T16:14:36.695Z,53.50
2019-05-01T16:17:06.717Z,53.70
2019-05-01T16:19:34.275Z,54.07
2019-05-01T16:22:01.921Z,53.33
2019-05-01T16:24:29.519Z,54.07
2019-05-01T16:26:57.093Z,52.60
2019-05-01T16:29:24.763Z,48.60
2019-05-01T16:31:52.457Z,50.67
2019-05-01T16:34:37.831Z,51.37
2019-05-01T16:37:45.941Z,49.67
2019-05-01T16:40:37.350Z,47.07
2019-05-01T16:43:07.945Z,49.00
2019-05-01T16:45:41.095Z,51.37
2019-05-01T16:48:11.970Z,47.20
2019-05-01T16:50:39.631Z,45.77
2019-05-01T16:53:15.670Z,47.57
2019-05-01T16:55:46.039Z,42.70
2019-05-01T16:58:14.715Z,40.63
2019-05-01T17:01:06.217Z,39.07
2019-05-01T17:03:53.417Z,41.30
2019-05-01T17:06:38.249Z,37.63
2019-05-01T17:09:28.362Z,38.97
2019-05-01T17:11:55.934Z,40.40
2019-05-01T17:14:23.594Z,34.97
2019-05-01T17:17:23.307Z,35.47
2019-05-01T17:19:50.856Z,38.47
2019-05-01T17:22:18.479Z,34.00
2019-05-01T17:24:54.389Z,36.17
2019-05-01T17:27:22.122Z,37.07
2019-05-01T17:29:49.661Z,36.40
2019-05-01T17:32:18.101Z,38.57
2019-05-01T17:34:45.719Z,35.07
2019-05-01T17:37:13.397Z,36.00
2019-05-01T17:39:40.966Z,34.80
2019-05-01T17:42:08.589Z,36.77
2019-05-01T17:44:36.165Z,35.30
2019-05-01T17:47:03.949Z,34.30
2019-05-01T17:49:31.517Z,37.23
2019-05-01T17:52:02.221Z,36.20
2019-05-01T17:54:38.932Z,37.90
2019-05-01T17:57:10.304Z,37.80
2019-05-01T17:59:37.846Z,39.80
2019-05-01T18:04:35.383Z,37.63
2019-05-01T18:05:19.800Z,34.27
2019-05-01T18:07:47.400Z,40.33
2019-05-01T18:10:15.012Z,35.07
2019-05-01T18:12:48.286Z,35.53
2019-05-01T18:15:18.311Z,38.93
2019-05-01T18:17:58.279Z,37.47
2019-05-01T18:20:25.882Z,39.47
2019-05-01T18:23:22.086Z,36.17
2019-05-01T18:25:53.707Z,36.90
2019-05-01T18:28:46.444Z,37.37
2019-05-01T18:31:20.234Z,36.47
2019-05-01T18:33:47.867Z,37.07
2019-05-01T18:37:17.266Z,38.03
2019-05-01T18:39:45.003Z,39.80
2019-05-01T18:42:14.847Z,40.47
2019-05-01T18:44:47.310Z,35.90
2019-05-01T18:47:13.327Z,35.37
2019-05-01T18:49:43.131Z,36.53
2019-05-01T18:52:10.815Z,35.93
2019-05-01T18:54:38.450Z,36.17
2019-05-01T18:57:13.900Z,36.20
2019-05-01T18:59:43.338Z,34.37
2019-05-01T19:02:14.008Z,34.30
2019-05-01T19:04:58.562Z,35.83
2019-05-01T19:08:04.908Z,35.27
2019-05-01T19:10:34.592Z,41.90
2019-05-01T19:13:02.127Z,35.83
2019-05-01T19:15:29.933Z,36.53
2019-05-01T19:18:00.679Z,38.23
2019-05-01T19:20:28.323Z,38.20
2019-05-01T19:22:57.354Z,44.13
2019-05-01T19:25:25.273Z,38.43
2019-05-01T19:28:11.766Z,40.83
2019-05-01T19:30:40.536Z,37.70
2019-05-01T19:33:05.992Z,39.80
2019-05-01T19:35:36.788Z,38.43
2019-05-01T19:38:04.726Z,37.93
2019-05-01T19:40:32.782Z,36.30
2019-05-01T19:43:00.759Z,38.80
2019-05-01T19:45:28.624Z,38.07
2019-05-01T19:47:57.524Z,39.20
2019-05-01T19:50:25.494Z,39.00
2019-05-01T19:52:53.587Z,41.10
2019-05-01T19:55:21.253Z,39.47
2019-05-01T19:57:54.263Z,41.43
2019-05-01T20:01:04.555Z,40.77
2019-05-01T20:03:36.262Z,39.03
2019-05-01T20:06:07.723Z,40.37
2019-05-01T20:08:34.104Z,44.03
2019-05-01T20:11:01.826Z,41.00
2019-05-01T20:13:29.431Z,44.03
2019-05-01T20:15:57.064Z,39.87
2019-05-01T20:18:26.459Z,42.60
2019-05-01T20:20:54.206Z,47.63
2019-05-01T20:23:26.273Z,43.60
2019-05-01T20:25:55.844Z,42.07
2019-05-01T20:28:22.451Z,45.10
2019-05-01T20:30:50.357Z,45.40
2019-05-01T20:33:17.964Z,43.63
2019-05-01T20:35:45.830Z,43.10
2019-05-01T20:38:13.419Z,47.67
2019-05-01T20:40:41.231Z,48.70
2019-05-01T20:43:08.935Z,49.50
2019-05-01T20:45:36.650Z,48.67
2019-05-01T20:48:04.270Z,45.60
2019-05-01T20:50:33.287Z,45.43
2019-05-01T20:53:02.847Z,46.07
2019-05-01T20:55:30.600Z,47.80
2019-05-01T20:58:21.105Z,42.73
2019-05-01T21:00:54.711Z,46.73
2019-05-01T21:03:23.025Z,45.50
2019-05-01T21:06:12.056Z,44.40
2019-05-01T21:09:01.230Z,45.70
2019-05-01T21:11:36.178Z,47.47
2019-05-01T21:14:19.837Z,46.47
2019-05-01T21:16:37.922Z,45.93
2019-05-01T21:19:06.138Z,46.43
2019-05-01T21:21:34.462Z,50.00
2019-05-01T21:24:03.847Z,48.03
2019-05-01T21:26:33.432Z,46.93
2019-05-01T21:29:04.029Z,52.13
2019-05-01T21:31:37.498Z,48.13
2019-05-01T21:34:05.077Z,47.13
2019-05-01T21:36:32.662Z,52.00
2019-05-01T21:39:00.248Z,52.30
2019-05-01T21:41:27.811Z,50.33
2019-05-01T21:43:55.429Z,49.93
2019-05-01T21:46:23.157Z,49.57
2019-05-01T21:48:50.790Z,47.37
2019-05-01T21:51:18.457Z,49.90
2019-05-01T21:53:46.525Z,53.00
2019-05-01T21:56:14.361Z,51.10
2019-05-01T21:58:41.872Z,50.33
2019-05-01T22:01:09.635Z,55.23
2019-05-01T22:03:37.251Z,54.53
2019-05-01T22:06:11.231Z,51.40
2019-05-01T22:08:39.143Z,49.83
2019-05-01T22:11:07.466Z,51.60
2019-05-01T22:13:35.010Z,52.57
2019-05-01T22:16:10.826Z,54.67
2019-05-01T22:18:54.258Z,52.93
2019-05-01T22:21:46.294Z,56.37
2019-05-01T22:24:27.314Z,52.20
2019-05-01T22:27:01.910Z,52.03
2019-05-01T22:29:34.026Z,57.17
2019-05-01T22:32:20.710Z,53.50
2019-05-01T22:35:07.777Z,55.93
2019-05-01T22:37:36.147Z,51.23
2019-05-01T22:40:08.297Z,53.00
2019-05-01T22:42:35.874Z,58.90
2019-05-01T22:45:04.523Z,51.43
2019-05-01T22:47:35.230Z,53.17
2019-05-01T22:50:04.792Z,56.23
2019-05-01T22:52:32.412Z,52.07
2019-05-01T22:55:00.014Z,53.67
2019-05-01T22:57:27.579Z,58.43
2019-05-01T22:59:55.076Z,58.57
2019-05-01T23:02:29.623Z,56.10
2019-05-01T23:04:57.419Z,54.57
2019-05-01T23:07:27.165Z,53.07
2019-05-01T23:09:59.289Z,52.33
2019-05-01T23:12:28.126Z,55.17
2019-05-01T23:14:55.642Z,55.90
2019-05-01T23:17:34.960Z,55.10
2019-05-01T23:20:03.914Z,51.83
2019-05-01T23:22:32.092Z,55.13
2019-05-01T23:24:59.755Z,53.83
2019-05-01T23:27:29.184Z,51.57
2019-05-01T23:29:56.642Z,56.37
2019-05-01T23:32:24.178Z,54.03
2019-05-01T23:34:51.993Z,58.83
2019-05-01T23:37:19.379Z,53.37
2019-05-01T23:39:46.818Z,54.90
2019-05-01T23:42:14.208Z,52.63
2019-05-01T23:44:43.065Z,60.90
2019-05-01T23:47:11.060Z,52.77
2019-05-01T23:49:38.582Z,60.50
2019-05-01T23:52:06.870Z,57.70
2019-05-01T23:54:34.385Z,60.03
2019-05-01T23:57:01.909Z,57.97
2019-05-01T23:59:29.429Z,53.73
